createdAt,value
2022-08-21T00:04:48.322Z,26.28
2022-08-21T00:10:01.386Z,26.14
2022-08-21T00:15:05.370Z,26.05
2022-08-21T00:20:13.604Z,25.92
2022-08-21T00:25:20.933Z,25.87
2022-08-21T00:30:28.395Z,25.82
2022-08-21T00:35:34.194Z,25.70
2022-08-21T00:40:53.061Z,25.60
2022-08-21T00:45:56.700Z,25.49
2022-08-21T00:51:03.664Z,25.48
2022-08-21T00:56:11.177Z,25.43
2022-08-21T01:01:14.427Z,25.32
2022-08-21T01:06:17.435Z,25.23
2022-08-21T01:11:22.690Z,25.19
2022-08-21T01:16:26.313Z,25.18
2022-08-21T01:21:30.483Z,25.12
2022-08-21T01:26:37.006Z,25.11
2022-08-21T01:31:40.590Z,25.01
2022-08-21T01:36:45.085Z,24.92
2022-08-21T01:41:47.872Z,24.86
2022-08-21T01:46:51.081Z,24.82
2022-08-21T01:51:55.699Z,24.79
2022-08-21T01:57:00.727Z,24.71
2022-08-21T02:02:04.359Z,24.59
2022-08-21T02:07:10.395Z,24.61
2022-08-21T02:12:13.377Z,24.58
2022-08-21T02:17:16.290Z,24.66
2022-08-21T02:22:20.689Z,24.70
2022-08-21T02:27:26.107Z,24.69
2022-08-21T02:32:29.732Z,24.81
2022-08-21T02:37:33.980Z,24.77
2022-08-21T02:42:37.208Z,24.72
2022-08-21T02:47:40.704Z,24.63
2022-08-21T02:52:46.192Z,24.56
2022-08-21T02:57:55.367Z,24.46
2022-08-21T03:02:58.861Z,24.48
2022-08-21T03:08:10.349Z,24.54
2022-08-21T03:13:13.873Z,24.50
2022-08-21T03:18:16.825Z,24.56
2022-08-21T03:23:20.930Z,24.56
2022-08-21T03:28:24.539Z,24.60
2022-08-21T03:33:28.559Z,24.70
2022-08-21T03:38:34.112Z,24.75
2022-08-21T03:43:37.607Z,24.79
2022-08-21T03:48:40.637Z,24.82
2022-08-21T03:53:45.855Z,24.84
2022-08-21T03:58:48.680Z,24.80
2022-08-21T04:03:51.568Z,24.74
2022-08-21T04:08:55.961Z,24.73
2022-08-21T04:13:59.072Z,24.71
2022-08-21T04:19:02.800Z,24.75
2022-08-21T04:24:08.257Z,24.70
2022-08-21T04:29:11.046Z,24.69
2022-08-21T04:34:14.489Z,24.62
2022-08-21T04:39:18.823Z,24.51
2022-08-21T04:44:22.099Z,24.45
2022-08-21T04:49:24.880Z,24.38
2022-08-21T04:54:29.293Z,24.35
2022-08-21T04:59:37.626Z,24.39
2022-08-21T05:04:43.853Z,24.43
2022-08-21T05:09:48.266Z,24.34
2022-08-21T05:14:51.032Z,24.27
2022-08-21T05:19:53.944Z,24.11
2022-08-21T05:24:59.371Z,24.00
2022-08-21T05:30:02.260Z,23.90
2022-08-21T05:35:05.994Z,23.80
2022-08-21T05:40:22.451Z,23.84
2022-08-21T05:45:42.176Z,23.78
2022-08-21T05:50:48.004Z,23.66
2022-08-21T05:55:52.864Z,23.54
2022-08-21T06:00:55.567Z,23.49
2022-08-21T06:05:59.426Z,23.54
2022-08-21T06:11:04.533Z,23.62
2022-08-21T06:16:10.171Z,23.84
2022-08-21T06:21:13.881Z,23.77
2022-08-21T06:26:18.019Z,23.74
2022-08-21T06:31:24.817Z,23.68
2022-08-21T06:36:27.768Z,23.65
2022-08-21T06:41:32.538Z,23.69
2022-08-21T06:46:41.976Z,23.85
2022-08-21T06:51:47.356Z,23.91
2022-08-21T06:56:51.931Z,23.78
2022-08-21T07:01:54.765Z,23.63
2022-08-21T07:06:57.649Z,23.63
2022-08-21T07:12:02.731Z,23.61
2022-08-21T07:17:05.819Z,23.50
2022-08-21T07:22:09.299Z,23.57
2022-08-21T07:27:13.704Z,23.52
2022-08-21T07:32:21.404Z,23.58
2022-08-21T07:37:24.333Z,23.53
2022-08-21T07:42:28.591Z,23.38
2022-08-21T07:47:42.104Z,23.35
2022-08-21T07:52:46.157Z,23.32
2022-08-21T07:57:50.902Z,23.34
2022-08-21T08:02:55.331Z,23.33
2022-08-21T08:07:59.140Z,23.31
2022-08-21T08:13:04.081Z,23.30
2022-08-21T08:18:06.938Z,23.32
2022-08-21T08:23:12.071Z,23.28
2022-08-21T08:28:17.623Z,23.30
2022-08-21T08:33:20.746Z,23.31
2022-08-21T08:38:25.484Z,23.33
2022-08-21T08:43:31.467Z,23.18
2022-08-21T08:48:52.744Z,23.16
2022-08-21T08:54:02.327Z,23.12
2022-08-21T08:59:14.009Z,23.03
2022-08-21T09:04:22.771Z,23.08
2022-08-21T09:09:36.194Z,23.04
2022-08-21T09:14:59.892Z,23.23
2022-08-21T09:20:15.120Z,23.17
2022-08-21T09:25:24.365Z,23.08
2022-08-21T09:30:31.709Z,23.16
2022-08-21T09:35:36.396Z,23.38
2022-08-21T09:40:42.069Z,23.56
2022-08-21T09:45:47.468Z,23.72
2022-08-21T09:50:51.538Z,23.99
2022-08-21T09:56:15.808Z,24.14
2022-08-21T10:01:22.982Z,24.21
2022-08-21T10:06:29.384Z,24.35
2022-08-21T10:11:33.619Z,24.19
2022-08-21T10:16:50.814Z,24.24
2022-08-21T10:22:04.491Z,24.61
2022-08-21T10:27:22.973Z,24.62
2022-08-21T10:32:49.339Z,24.84
2022-08-21T10:38:07.261Z,24.97
2022-08-21T10:43:23.013Z,25.14
2022-08-21T10:48:35.265Z,25.20
2022-08-21T10:53:55.639Z,25.29
2022-08-21T10:59:26.604Z,25.27
2022-08-21T11:04:46.326Z,25.41
2022-08-21T11:09:56.273Z,25.48
2022-08-21T11:15:04.224Z,25.60
2022-08-21T11:20:14.626Z,25.59
2022-08-21T11:25:24.568Z,25.71
2022-08-21T11:30:39.213Z,25.75
2022-08-21T11:35:49.727Z,25.76
2022-08-21T11:41:06.258Z,25.65
2022-08-21T11:46:27.596Z,25.72
2022-08-21T11:51:36.177Z,25.78
2022-08-21T11:56:44.180Z,25.80
2022-08-21T12:01:47.980Z,25.97
2022-08-21T12:06:52.365Z,26.07
2022-08-21T12:12:04.217Z,26.05
2022-08-21T12:17:20.460Z,26.13
2022-08-21T12:22:38.318Z,26.24
2022-08-21T12:27:49.404Z,26.31
2022-08-21T12:33:00.848Z,26.36
2022-08-21T12:38:11.495Z,26.44
2022-08-21T12:43:20.303Z,26.54
2022-08-21T12:48:30.771Z,26.69
2022-08-21T12:53:43.520Z,26.79
2022-08-21T12:58:49.217Z,26.89
2022-08-21T13:04:00.255Z,26.89
2022-08-21T13:09:13.636Z,26.99
2022-08-21T13:14:33.747Z,26.96
2022-08-21T13:19:36.701Z,26.99
2022-08-21T13:24:43.365Z,26.93
2022-08-21T13:29:53.248Z,27.15
2022-08-21T13:34:58.670Z,27.13
2022-08-21T13:40:03.174Z,27.05
2022-08-21T13:45:14.849Z,26.87
2022-08-21T13:50:21.385Z,27.16
2022-08-21T13:55:26.561Z,26.99
2022-08-21T14:00:32.421Z,27.09
2022-08-21T14:05:38.786Z,27.28
2022-08-21T14:10:46.576Z,27.45
2022-08-21T14:15:57.524Z,27.29
2022-08-21T14:21:08.164Z,27.09
2022-08-21T14:26:12.500Z,27.38
2022-08-21T14:31:19.137Z,27.33
2022-08-21T14:36:22.644Z,27.50
2022-08-21T14:41:30.645Z,27.62
2022-08-21T14:46:36.244Z,27.69
2022-08-21T14:51:53.928Z,27.72
2022-08-21T14:56:59.818Z,27.59
2022-08-21T15:02:05.150Z,27.59
2022-08-21T15:07:08.123Z,27.68
2022-08-21T15:12:15.295Z,27.79
2022-08-21T15:17:18.749Z,27.97
2022-08-21T15:22:27.785Z,27.90
2022-08-21T15:27:33.052Z,27.80
2022-08-21T15:32:37.212Z,27.72
2022-08-21T15:37:40.557Z,27.89
2022-08-21T15:42:48.200Z,28.02
2022-08-21T15:47:52.725Z,27.97
2022-08-21T15:52:59.300Z,28.12
2022-08-21T15:58:17.043Z,27.96
2022-08-21T16:03:23.660Z,27.94
2022-08-21T16:08:28.031Z,28.03
2022-08-21T16:13:39.798Z,28.02
2022-08-21T16:18:43.408Z,27.95
2022-08-21T16:23:46.257Z,27.96
2022-08-21T16:28:55.937Z,28.02
2022-08-21T16:33:59.959Z,27.88
2022-08-21T16:39:03.051Z,27.88
2022-08-21T16:44:08.658Z,27.76
2022-08-21T16:49:14.466Z,27.80
2022-08-21T16:54:17.287Z,27.77
2022-08-21T16:59:21.472Z,27.90
2022-08-21T17:04:25.891Z,27.99
2022-08-21T17:09:28.654Z,28.00
2022-08-21T17:14:32.953Z,27.85
2022-08-21T17:19:35.940Z,27.92
2022-08-21T17:24:38.974Z,27.90
2022-08-21T17:29:43.175Z,27.92
2022-08-21T17:34:46.845Z,27.90
2022-08-21T17:39:49.681Z,27.96
2022-08-21T17:44:56.357Z,27.90
2022-08-21T17:49:59.148Z,27.80
2022-08-21T17:55:01.979Z,27.84
2022-08-21T18:00:09.104Z,27.78
2022-08-21T18:05:15.454Z,27.83
2022-08-21T18:10:18.310Z,27.85
2022-08-21T18:15:23.258Z,27.93
2022-08-21T18:20:26.104Z,27.90
2022-08-21T18:25:29.738Z,27.96
2022-08-21T18:30:38.164Z,27.94
2022-08-21T18:35:42.110Z,27.93
2022-08-21T18:40:47.669Z,27.96
2022-08-21T18:45:52.017Z,27.92
2022-08-21T18:50:55.122Z,27.90
2022-08-21T18:56:05.417Z,27.84
2022-08-21T19:01:22.918Z,27.75
2022-08-21T19:06:27.355Z,27.81
2022-08-21T19:11:30.806Z,27.83
2022-08-21T19:16:35.746Z,27.75
2022-08-21T19:21:39.597Z,27.92
2022-08-21T19:26:42.784Z,28.01
2022-08-21T19:31:47.161Z,27.96
2022-08-21T19:36:51.571Z,27.98
2022-08-21T19:41:57.533Z,28.00
2022-08-21T19:47:04.802Z,27.98
2022-08-21T19:52:12.967Z,27.81
2022-08-21T19:57:17.789Z,27.78
2022-08-21T20:02:21.989Z,27.86
2022-08-21T20:07:25.129Z,27.71
2022-08-21T20:12:30.075Z,27.88
2022-08-21T20:17:34.219Z,27.93
2022-08-21T20:22:37.016Z,27.97
2022-08-21T20:27:40.728Z,27.83
2022-08-21T20:32:44.807Z,27.74
2022-08-21T20:37:58.502Z,27.73
2022-08-21T20:43:02.663Z,27.74
2022-08-21T20:48:15.469Z,27.80
2022-08-21T20:53:42.920Z,27.77
2022-08-21T20:59:01.367Z,27.78
2022-08-21T21:04:15.873Z,27.79
2022-08-21T21:09:34.825Z,27.81
2022-08-21T21:14:46.437Z,27.76
2022-08-21T21:19:56.943Z,27.75
2022-08-21T21:25:05.153Z,27.74
2022-08-21T21:30:14.400Z,27.68
2022-08-21T21:35:32.631Z,27.65
2022-08-21T21:40:49.641Z,27.67
2022-08-21T21:46:10.368Z,27.64
2022-08-21T21:51:28.210Z,27.65
2022-08-21T21:56:42.346Z,27.62
2022-08-21T22:01:50.969Z,27.61
2022-08-21T22:07:01.339Z,27.45
2022-08-21T22:12:24.624Z,27.64
2022-08-21T22:17:35.278Z,27.67
2022-08-21T22:22:40.516Z,27.67
2022-08-21T22:27:44.830Z,27.65
2022-08-21T22:32:50.281Z,27.60
2022-08-21T22:37:56.865Z,27.59
2022-08-21T22:43:02.543Z,27.53
2022-08-21T22:48:11.308Z,27.49
2022-08-21T22:53:35.763Z,27.40
2022-08-21T22:58:54.089Z,27.33
2022-08-21T23:04:00.812Z,27.27
2022-08-21T23:09:10.293Z,27.20
2022-08-21T23:14:14.311Z,27.17
2022-08-21T23:19:29.046Z,27.11
2022-08-21T23:24:56.894Z,27.06
2022-08-21T23:30:08.897Z,27.00
2022-08-21T23:35:17.880Z,26.96
2022-08-21T23:40:36.454Z,26.89
2022-08-21T23:45:49.008Z,26.85
2022-08-21T23:50:59.090Z,26.80
2022-08-21T23:56:21.373Z,26.74
